Time;durP1;ratioP1;P1;durP2;ratioP2;P2;SDS_P1;SDS_P2;PMS_P1;PMS_P2;Temp;Humidity;BMP_temperature;BMP_pressure;BME280_temperature;BME280_humidity;BME280_pressure;Samples;Min_cycle;Max_cycle;Signal;HPM_P1;HPM_P2
2022/05/01 00:01:08;;;;;;;25.33;10.23;;;;;;;2.13;52.92;100215.84;5014470;28;20125;-70
2022/05/01 00:03:36;;;;;;;34.03;11.65;;;;;;;2.13;52.92;100211.44;5017816;28;20526;-70
2022/05/01 00:06:08;;;;;;;20.45;9.77;;;;;;;2.17;52.95;100218.31;5018352;28;20496;-70
2022/05/01 00:08:34;;;;;;;28.95;10.32;;;;;;;2.15;53.08;100212.25;5001415;28;20558;-70
2022/05/01 00:11:00;;;;;;;22.88;9.93;;;;;;;2.13;52.81;100221.97;5018804;28;20036;-70
2022/05/01 00:13:25;;;;;;;30.52;10.60;;;;;;;2.12;53.40;100216.75;5018973;28;20091;-71
2022/05/01 00:15:50;;;;;;;18.80;9.20;;;;;;;2.09;53.43;100225.56;4999833;28;20476;-71
2022/05/01 00:18:16;;;;;;;20.77;9.80;;;;;;;2.10;53.05;100223.81;4998669;28;20094;-70
2022/05/01 00:20:41;;;;;;;23.38;10.38;;;;;;;2.06;53.36;100216.91;5016443;28;20048;-68
2022/05/01 00:23:05;;;;;;;19.90;9.75;;;;;;;2.04;53.40;100223.97;5019811;28;20087;-72
2022/05/01 00:25:31;;;;;;;19.17;9.80;;;;;;;2.02;53.72;100226.66;4985179;28;20037;-73
2022/05/01 00:27:56;;;;;;;21.13;10.50;;;;;;;1.94;54.08;100225.13;5018343;28;20045;-77
2022/05/01 00:30:21;;;;;;;17.48;9.32;;;;;;;1.91;53.51;100228.72;5003627;28;20094;-77
2022/05/01 00:38:12;;;;;;;16.88;9.70;;;;;;;1.80;54.19;100215.88;5015268;28;20127;-77
2022/05/01 00:40:37;;;;;;;19.35;9.77;;;;;;;1.80;53.90;100222.88;5009052;28;20137;-78
2022/05/01 00:43:04;;;;;;;20.85;9.57;;;;;;;1.79;53.54;100222.03;5007663;28;20056;-79
2022/05/01 00:45:30;;;;;;;26.65;10.05;;;;;;;1.78;54.23;100228.19;4991963;28;20040;-79
2022/05/01 00:47:55;;;;;;;17.92;9.82;;;;;;;1.79;54.11;100222.03;5009724;28;20044;-79
2022/05/01 00:50:20;;;;;;;21.30;9.38;;;;;;;1.80;53.80;100223.75;5001040;28;20040;-78
2022/05/01 00:52:45;;;;;;;22.67;9.63;;;;;;;1.79;53.89;100219.38;5028506;28;20060;-77
2022/05/01 00:55:09;;;;;;;22.20;9.75;;;;;;;1.79;53.91;100232.53;5016025;28;20047;-76
2022/05/01 00:57:35;;;;;;;17.33;8.82;;;;;;;1.79;54.11;100227.28;5020866;28;20599;-79
2022/05/01 01:00:00;;;;;;;22.83;9.30;;;;;;;1.78;54.01;100222.06;5020077;28;20507;-79
2022/05/01 01:02:25;;;;;;;16.05;8.38;;;;;;;1.77;53.97;100225.59;5006261;28;20033;-81
2022/05/01 01:04:50;;;;;;;19.05;7.75;;;;;;;1.76;53.96;100224.72;5006168;28;20049;-78
2022/05/01 01:07:15;;;;;;;21.13;10.73;;;;;;;1.76;54.03;100224.72;5020485;28;20091;-79
2022/05/01 01:09:39;;;;;;;14.32;8.05;;;;;;;1.76;53.91;100222.09;5021751;28;20518;-80
2022/05/01 01:14:48;;;;;;;14.10;7.97;;;;;;;1.76;54.28;100223.84;5020069;28;20503;-78
2022/05/01 01:17:13;;;;;;;21.33;8.70;;;;;;;1.77;53.70;100229.09;5001351;28;20515;-79
2022/05/01 01:19:37;;;;;;;18.85;7.53;;;;;;;1.76;53.69;100231.75;5019503;28;20115;-73
2022/05/01 01:22:04;;;;;;;18.52;8.65;;;;;;;1.75;53.75;100230.88;5020481;28;20041;-67
2022/05/01 01:24:29;;;;;;;20.17;8.60;;;;;;;1.75;53.74;100224.75;5021852;28;20040;-65
2022/05/01 01:26:55;;;;;;;20.23;9.07;;;;;;;1.75;53.76;100227.38;5023220;28;20039;-67
2022/05/01 01:32:06;;;;;;;16.20;6.30;;;;;;;1.80;53.62;100229.00;5023695;28;20047;-66
2022/05/01 01:34:36;;;;;;;20.65;8.45;;;;;;;1.80;53.60;100233.41;5029142;28;20041;-72
2022/05/01 01:37:02;;;;;;;13.55;7.55;;;;;;;1.77;53.64;100220.34;5011785;28;20506;-71
2022/05/01 01:39:28;;;;;;;18.58;8.40;;;;;;;1.75;53.55;100230.00;5015896;28;20052;-72
2022/05/01 01:41:54;;;;;;;13.43;7.13;;;;;;;1.73;53.60;100219.53;5018679;28;20036;-78
2022/05/01 01:44:20;;;;;;;18.83;7.90;;;;;;;1.73;53.48;100218.69;5022612;28;20132;-77
2022/05/01 01:46:45;;;;;;;21.17;7.28;;;;;;;1.72;54.09;100222.19;5019320;28;20041;-76
2022/05/01 01:49:10;;;;;;;16.60;7.97;;;;;;;1.72;53.70;100230.94;5000248;28;20051;-70
2022/05/01 01:51:35;;;;;;;14.20;8.40;;;;;;;1.70;53.66;100224.00;4998373;28;20052;-77
2022/05/01 01:53:59;;;;;;;17.98;7.55;;;;;;;1.69;53.70;100220.50;5017634;28;20055;-76
2022/05/01 01:56:24;;;;;;;13.48;7.57;;;;;;;1.68;53.83;100221.44;5016388;28;20037;-76
2022/05/01 01:58:49;;;;;;;14.57;7.45;;;;;;;1.66;53.84;100219.75;5017249;28;20040;-78
2022/05/01 02:01:14;;;;;;;14.20;7.18;;;;;;;1.67;53.73;100217.09;5014761;28;20048;-67
2022/05/01 02:03:39;;;;;;;13.73;6.78;;;;;;;1.69;53.82;100225.75;4998086;28;20052;-73
2022/05/01 02:06:05;;;;;;;21.33;8.00;;;;;;;1.73;53.57;100224.78;4998368;28;20551;-68
2022/05/01 02:08:30;;;;;;;12.65;7.18;;;;;;;1.80;53.60;100222.88;4998248;28;20523;-71
2022/05/01 02:10:55;;;;;;;14.15;6.82;;;;;;;1.87;53.67;100232.31;4981615;28;20033;-66
2022/05/01 02:13:20;;;;;;;14.50;7.18;;;;;;;1.92;53.42;100225.16;4997612;28;20072;-72
2022/05/01 02:15:45;;;;;;;13.32;7.35;;;;;;;2.01;52.83;100227.56;4997730;28;20460;-68
2022/05/01 02:18:11;;;;;;;12.05;6.47;;;;;;;2.07;52.87;100229.16;5015289;28;20534;-67
2022/05/01 02:23:21;;;;;;;14.27;7.47;;;;;;;2.27;52.28;100223.31;5029439;28;20044;-72
2022/05/01 02:25:47;;;;;;;10.25;6.13;;;;;;;2.37;51.69;100224.81;5015482;28;20047;-65
2022/05/01 02:28:11;;;;;;;10.95;6.22;;;;;;;2.40;51.31;100227.31;5020853;28;20047;-68
2022/05/01 02:30:38;;;;;;;13.70;7.10;;;;;;;2.45;51.25;100223.69;5020588;28;20032;-66
2022/05/01 02:33:03;;;;;;;12.52;6.53;;;;;;;2.49;51.58;100227.91;5020872;28;20503;-69
2022/05/01 02:35:28;;;;;;;13.77;6.40;;;;;;;2.55;51.27;100224.25;5009579;28;20172;-69
2022/05/01 02:37:53;;;;;;;18.00;6.82;;;;;;;2.63;51.27;100224.03;5013586;28;20125;-67
2022/05/01 02:40:17;;;;;;;11.45;6.63;;;;;;;2.75;50.55;100223.66;5013828;28;20037;-67
2022/05/01 02:42:42;;;;;;;18.45;6.28;;;;;;;2.80;50.37;100225.25;5013322;28;20067;-71
2022/05/01 02:45:07;;;;;;;15.23;6.65;;;;;;;2.87;50.39;100226.78;4980890;28;20096;-74
2022/05/01 02:47:33;;;;;;;11.18;5.93;;;;;;;3.00;49.97;100227.25;5014893;28;20550;-70
2022/05/01 02:49:58;;;;;;;11.13;6.20;;;;;;;3.14;49.95;100225.06;5014552;28;20076;-67
2022/05/01 02:52:23;;;;;;;14.38;6.80;;;;;;;3.29;49.38;100229.81;5014462;28;20099;-68
2022/05/01 02:54:47;;;;;;;10.35;5.47;;;;;;;3.42;48.77;100226.78;4997767;28;20071;-72
2022/05/01 02:57:13;;;;;;;12.25;6.28;;;;;;;3.47;48.87;100228.38;4997941;28;20516;-72
2022/05/01 02:59:38;;;;;;;19.63;7.65;;;;;;;3.57;48.40;100228.91;4997845;28;20096;-73
2022/05/01 03:02:03;;;;;;;17.55;6.68;;;;;;;3.64;48.34;100222.50;5015635;28;20136;-72
2022/05/01 03:04:28;;;;;;;10.02;6.25;;;;;;;3.73;48.13;100231.88;5014129;28;20051;-69
2022/05/01 03:06:53;;;;;;;10.70;6.20;;;;;;;3.82;47.75;100229.81;5015156;28;20032;-73
2022/05/01 03:09:17;;;;;;;15.55;6.57;;;;;;;3.95;47.75;100220.53;5014095;28;20044;-69
2022/05/01 03:11:42;;;;;;;11.48;5.10;;;;;;;4.15;47.49;100218.97;5015570;28;20511;-72
2022/05/01 03:14:09;;;;;;;16.27;6.05;;;;;;;4.35;46.71;100219.97;4996744;28;20049;-66
2022/05/01 03:16:34;;;;;;;10.40;6.40;;;;;;;4.56;46.39;100226.22;4995177;28;20396;-65
2022/05/01 03:24:43;;;;;;;10.90;6.40;;;;;;;5.19;45.35;100229.09;4935325;28;20039;-66
2022/05/01 03:27:09;;;;;;;10.43;5.05;;;;;;;5.31;44.74;100223.28;4935022;28;20080;-67
2022/05/01 03:29:34;;;;;;;12.63;5.85;;;;;;;5.32;44.25;100217.94;4936265;28;20046;-67
2022/05/01 03:31:59;;;;;;;16.02;6.90;;;;;;;5.46;44.26;100233.25;4953611;28;20046;-65
2022/05/01 03:34:26;;;;;;;10.55;5.60;;;;;;;5.59;44.06;100225.66;4953430;28;20046;-65
2022/05/01 03:36:53;;;;;;;14.85;6.15;;;;;;;5.78;43.96;100231.88;4953194;28;20554;-65
2022/05/01 03:39:18;;;;;;;10.85;5.88;;;;;;;5.96;43.33;100228.50;4922079;28;20061;-65
2022/05/01 03:41:43;;;;;;;9.38;5.53;;;;;;;6.11;43.22;100227.81;4940702;28;20056;-65
2022/05/01 03:44:08;;;;;;;13.10;5.47;;;;;;;6.28;42.76;100232.38;4957036;28;20046;-65
2022/05/01 03:46:36;;;;;;;12.65;6.47;;;;;;;6.36;42.42;100232.03;4956875;28;20054;-66
2022/05/01 03:49:00;;;;;;;10.55;5.53;;;;;;;6.55;42.14;100233.75;4923494;28;20449;-66
2022/05/01 03:51:25;;;;;;;9.77;4.95;;;;;;;6.63;41.80;100230.78;4942925;28;20402;-65
2022/05/01 03:53:50;;;;;;;15.02;5.97;;;;;;;6.75;40.93;100229.38;4976627;28;20079;-66
2022/05/01 03:56:15;;;;;;;12.50;5.50;;;;;;;6.88;41.13;100230.50;4976283;28;20057;-66
2022/05/01 03:58:39;;;;;;;7.18;4.65;;;;;;;7.05;40.73;100229.69;4996662;28;20432;-65
2022/05/01 04:01:04;;;;;;;10.40;5.50;;;;;;;7.16;40.19;100230.03;5019238;28;20415;-65
2022/05/01 04:03:29;;;;;;;9.68;5.40;;;;;;;7.19;39.54;100221.94;5021982;28;20040;-66
2022/05/01 04:05:54;;;;;;;9.77;5.30;;;;;;;7.28;39.76;100221.50;5023790;28;20044;-65
2022/05/01 04:08:19;;;;;;;9.43;5.18;;;;;;;7.48;39.17;100226.69;5007596;28;20506;-65
2022/05/01 04:10:46;;;;;;;8.38;5.00;;;;;;;7.60;38.78;100220.75;5006164;28;20468;-66
2022/05/01 04:13:12;;;;;;;8.20;4.63;;;;;;;7.77;38.62;100222.59;5024721;28;20040;-66
2022/05/01 04:15:37;;;;;;;13.32;5.57;;;;;;;8.01;38.35;100218.66;5025782;28;20114;-66
2022/05/01 04:18:02;;;;;;;9.30;4.28;;;;;;;8.34;37.15;100217.88;5007607;28;20560;-64
2022/05/01 04:20:28;;;;;;;7.95;5.15;;;;;;;8.70;36.81;100225.63;4971509;28;20246;-65
2022/05/01 04:22:53;;;;;;;10.77;5.07;;;;;;;9.06;36.45;100218.28;5020213;28;20704;-66
2022/05/01 04:25:20;;;;;;;7.43;4.13;;;;;;;9.41;35.26;100229.59;5000217;28;20466;-66
2022/05/01 04:27:46;;;;;;;9.32;5.35;;;;;;;9.73;34.70;100229.53;5018340;28;20451;-66
2022/05/01 04:30:12;;;;;;;7.53;4.22;;;;;;;10.06;34.46;100227.53;5017820;28;20144;-65
2022/05/01 04:33:10;;;;;;;11.82;4.47;;;;;;;10.41;32.37;100221.91;5016923;28;20037;-64
2022/05/01 04:35:37;;;;;;;5.18;3.85;;;;;;;10.61;32.64;100223.34;4918379;28;20089;-65
2022/05/01 04:38:04;;;;;;;9.07;4.25;;;;;;;10.88;31.74;100217.13;4902427;29;20534;-65
2022/05/01 04:40:34;;;;;;;6.95;4.07;;;;;;;11.27;31.15;100219.06;4917777;29;20059;-65
2022/05/01 04:43:12;;;;;;;5.60;4.22;;;;;;;11.70;30.61;100220.69;4918075;29;20608;-64
2022/05/01 04:45:40;;;;;;;10.48;4.20;;;;;;;12.04;30.27;100213.97;4918349;29;20065;-65
2022/05/01 04:48:06;;;;;;;6.28;3.72;;;;;;;12.19;29.73;100224.44;4918399;29;20062;-66
2022/05/01 04:50:32;;;;;;;7.93;4.30;;;;;;;12.16;29.74;100208.63;4918045;28;20556;-65
2022/05/01 04:53:00;;;;;;;7.13;4.45;;;;;;;12.04;29.31;100221.97;4929561;28;20532;-67
2022/05/01 04:55:25;;;;;;;6.40;3.97;;;;;;;12.24;29.65;100210.75;4920670;28;20090;-66
2022/05/01 04:57:49;;;;;;;7.70;4.10;;;;;;;12.56;29.05;100209.38;4936310;28;20047;-67
2022/05/01 05:00:18;;;;;;;6.03;4.20;;;;;;;12.79;28.45;100212.22;4938537;28;20523;-65
2022/05/01 05:02:43;;;;;;;14.73;4.43;;;;;;;12.95;28.17;100207.50;4939337;28;20042;-65
2022/05/01 05:05:11;;;;;;;5.90;3.80;;;;;;;13.16;28.06;100210.47;4938286;28;20069;-66
2022/05/01 05:07:39;;;;;;;8.15;4.07;;;;;;;13.55;27.88;100212.84;4938723;28;20050;-65
2022/05/01 05:10:07;;;;;;;5.75;3.72;;;;;;;13.91;26.26;100213.72;4939860;28;20111;-69
2022/05/01 05:12:32;;;;;;;7.15;3.95;;;;;;;14.07;26.25;100209.78;4982480;28;20052;-66
2022/05/01 05:15:00;;;;;;;5.28;3.13;;;;;;;14.35;25.82;100208.47;5024187;28;20049;-65
2022/05/01 05:17:25;;;;;;;8.77;3.42;;;;;;;14.59;26.06;100215.59;5026983;28;20044;-65
2022/05/01 05:19:50;;;;;;;4.57;3.47;;;;;;;14.80;25.57;100216.59;5002500;28;20126;-65
2022/05/01 05:22:15;;;;;;;9.35;3.20;;;;;;;14.83;24.84;100213.66;4982373;28;20052;-65
2022/05/01 05:24:40;;;;;;;4.70;3.45;;;;;;;14.75;24.69;100203.56;5017841;28;20166;-66
2022/05/01 05:27:05;;;;;;;3.97;3.03;;;;;;;15.01;24.99;100204.13;5016501;28;20208;-66
2022/05/01 05:29:30;;;;;;;6.40;3.63;;;;;;;15.38;25.22;100193.91;4982757;28;20157;-66
2022/05/01 05:31:55;;;;;;;6.38;4.13;;;;;;;15.65;23.78;100206.94;4998637;28;20530;-68
2022/05/01 05:34:20;;;;;;;5.75;3.78;;;;;;;15.89;23.34;100199.50;5000293;28;20045;-65
2022/05/01 05:36:45;;;;;;;5.95;3.78;;;;;;;16.28;22.89;100195.22;5020138;28;20503;-65
2022/05/01 05:39:10;;;;;;;3.33;2.60;;;;;;;16.83;22.58;100197.63;5001458;28;20044;-67
2022/05/01 05:41:35;;;;;;;4.35;3.05;;;;;;;17.41;22.48;100201.34;5019134;28;20044;-65
2022/05/01 05:44:00;;;;;;;4.85;3.40;;;;;;;17.92;21.17;100195.75;5000728;28;20416;-66
2022/05/01 05:46:24;;;;;;;4.03;3.10;;;;;;;18.23;20.76;100196.41;5019259;28;20048;-64
2022/05/01 05:48:49;;;;;;;6.35;3.28;;;;;;;18.55;19.86;100192.47;5022245;28;20133;-65
2022/05/01 05:51:14;;;;;;;5.00;3.35;;;;;;;18.77;19.46;100187.59;5006419;28;20124;-66
2022/05/01 05:53:39;;;;;;;8.20;3.90;;;;;;;19.06;19.52;100186.63;5041846;28;20052;-67
2022/05/01 05:56:04;;;;;;;4.22;3.35;;;;;;;19.40;19.33;100181.44;5043288;28;20045;-66
2022/05/01 05:58:28;;;;;;;5.55;3.47;;;;;;;19.85;19.05;100179.53;5031960;28;20051;-65
2022/05/01 06:00:53;;;;;;;3.97;2.55;;;;;;;20.45;17.82;100181.50;5041475;28;20048;-65
2022/05/01 06:03:19;;;;;;;5.15;3.50;;;;;;;20.97;17.54;100185.88;5034214;28;20090;-65
2022/05/01 06:05:44;;;;;;;4.72;3.63;;;;;;;21.63;17.64;100184.22;5036052;28;20048;-65
2022/05/01 06:08:09;;;;;;;3.47;2.78;;;;;;;22.17;17.04;100188.19;5035639;28;20052;-66
2022/05/01 06:10:34;;;;;;;4.82;3.00;;;;;;;22.53;16.79;100180.50;4984855;28;20059;-65
2022/05/01 06:12:59;;;;;;;5.40;3.55;;;;;;;22.99;16.18;100172.56;5037060;28;20036;-71
2022/05/01 06:15:24;;;;;;;4.55;3.50;;;;;;;23.00;15.81;100182.41;4986882;28;20032;-72
2022/05/01 06:17:50;;;;;;;5.22;3.00;;;;;;;23.24;15.91;100186.91;5035669;28;20558;-71
2022/05/01 06:20:14;;;;;;;5.80;3.40;;;;;;;23.20;15.85;100186.38;5035797;28;20120;-72
2022/05/01 06:22:39;;;;;;;5.53;3.20;;;;;;;23.34;15.72;100184.78;5001427;28;20067;-73
2022/05/01 06:25:04;;;;;;;4.95;2.92;;;;;;;23.91;15.40;100179.84;5035992;28;20037;-72
2022/05/01 06:27:31;;;;;;;6.70;3.40;;;;;;;24.45;14.93;100177.00;5034639;28;20036;-71
2022/05/01 06:29:55;;;;;;;4.70;3.67;;;;;;;25.14;14.43;100181.16;5035353;28;20044;-71
2022/05/01 06:32:20;;;;;;;5.75;3.45;;;;;;;25.68;14.09;100180.75;5035158;28;20040;-73
2022/05/01 06:34:51;;;;;;;7.32;3.47;;;;;;;26.19;14.06;100183.34;5035362;28;20056;-71
2022/05/01 06:37:16;;;;;;;5.88;3.88;;;;;;;26.86;13.62;100180.06;5017087;28;20051;-70
2022/05/01 06:39:41;;;;;;;5.18;3.88;;;;;;;26.89;12.98;100172.28;5017207;28;20491;-71
2022/05/01 06:42:06;;;;;;;7.10;4.05;;;;;;;26.83;13.24;100181.31;5035217;28;20048;-71
2022/05/01 06:44:31;;;;;;;4.22;3.67;;;;;;;27.26;13.20;100178.41;5017272;28;20532;-72
2022/05/01 06:46:56;;;;;;;3.55;3.17;;;;;;;27.96;12.78;100180.72;5017241;28;20499;-73
2022/05/01 06:49:20;;;;;;;8.55;3.97;;;;;;;28.23;12.28;100178.84;5016931;28;20032;-66
2022/05/01 06:51:45;;;;;;;5.40;3.80;;;;;;;28.97;12.60;100169.47;5016543;28;20427;-66
2022/05/01 06:54:10;;;;;;;7.20;4.22;;;;;;;29.71;12.03;100172.53;5034579;28;20044;-65
2022/05/01 06:56:35;;;;;;;5.78;3.13;;;;;;;30.31;10.96;100171.03;5032869;28;20466;-66
2022/05/01 06:58:59;;;;;;;2.65;2.45;;;;;;;30.89;10.76;100164.38;5016419;28;20044;-66
2022/05/01 07:01:24;;;;;;;4.05;3.17;;;;;;;31.24;11.02;100162.69;5034176;28;20055;-67
2022/05/01 07:03:49;;;;;;;3.55;3.20;;;;;;;31.46;10.81;100157.53;5034164;28;20107;-67
2022/05/01 07:06:14;;;;;;;3.40;3.10;;;;;;;31.79;10.28;100159.81;5033797;28;20560;-65
2022/05/01 07:08:38;;;;;;;3.45;2.97;;;;;;;32.06;9.79;100154.72;5016047;28;20502;-66
2022/05/01 07:11:03;;;;;;;4.35;3.10;;;;;;;32.56;9.81;100157.06;5035013;28;20048;-66
2022/05/01 07:13:28;;;;;;;6.88;3.35;;;;;;;32.04;9.44;100163.25;5021449;28;20051;-67
2022/05/01 07:15:52;;;;;;;3.63;3.28;;;;;;;31.65;9.71;100152.81;5040295;28;20048;-66
2022/05/01 07:18:17;;;;;;;3.40;3.20;;;;;;;31.88;10.00;100158.41;5037784;28;20133;-66
2022/05/01 07:20:42;;;;;;;4.63;3.58;;;;;;;32.59;9.69;100160.19;5037463;28;20051;-66
2022/05/01 07:23:06;;;;;;;5.35;3.03;;;;;;;32.98;9.37;100160.53;5037481;28;20055;-66
2022/05/01 07:25:32;;;;;;;3.78;3.40;;;;;;;33.19;9.35;100154.34;5036115;28;20056;-67
2022/05/01 07:27:57;;;;;;;5.57;3.65;;;;;;;33.62;8.86;100162.16;5019327;28;20032;-66
2022/05/01 07:30:21;;;;;;;4.75;3.92;;;;;;;34.00;8.84;100161.47;5003101;28;20059;-66
2022/05/01 07:32:46;;;;;;;5.28;3.60;;;;;;;33.98;8.40;100154.50;5037264;28;20491;-65
2022/05/01 07:35:11;;;;;;;4.90;3.85;;;;;;;33.76;8.78;100148.88;5037461;28;20054;-66
2022/05/01 07:37:35;;;;;;;4.65;3.88;;;;;;;33.28;9.08;100152.94;5046129;28;20037;-67
2022/05/01 07:40:01;;;;;;;3.72;3.42;;;;;;;31.36;9.47;100147.06;5027627;28;20044;-66
2022/05/01 07:42:25;;;;;;;4.53;3.88;;;;;;;29.82;10.56;100148.97;5046889;28;20072;-66
2022/05/01 07:44:51;;;;;;;5.28;3.58;;;;;;;29.22;10.79;100129.25;5019995;28;20091;-68
2022/05/01 07:47:16;;;;;;;7.15;3.85;;;;;;;27.80;11.63;100134.53;5036082;28;20036;-67
2022/05/01 07:49:40;;;;;;;4.38;3.97;;;;;;;27.25;12.04;100138.38;5037228;28;20050;-66
2022/05/01 07:52:06;;;;;;;6.78;4.18;;;;;;;28.29;11.83;100144.25;5020662;28;20052;-67
2022/05/01 07:54:30;;;;;;;3.70;3.40;;;;;;;29.93;10.93;100134.50;5039471;28;20051;-69
2022/05/01 07:56:55;;;;;;;4.70;3.80;;;;;;;31.66;9.71;100126.94;5026742;28;20100;-68
2022/05/01 07:59:20;;;;;;;5.70;3.55;;;;;;;32.88;9.03;100129.94;5050268;28;20166;-68
2022/05/01 08:01:44;;;;;;;4.40;4.00;;;;;;;33.84;8.90;100132.72;4991407;28;20487;-68
2022/05/01 08:04:28;;;;;;;4.50;3.63;;;;;;;34.79;8.15;100139.22;5023348;28;20089;-68
2022/05/01 08:06:52;;;;;;;4.45;3.90;;;;;;;34.12;8.48;100129.03;5008659;28;20051;-66
2022/05/01 08:09:17;;;;;;;4.03;3.67;;;;;;;31.80;9.43;100122.91;5045015;28;20064;-65
2022/05/01 08:11:44;;;;;;;4.32;3.80;;;;;;;30.22;10.50;100120.16;5023640;28;20396;-66
2022/05/01 08:14:10;;;;;;;5.43;3.80;;;;;;;30.33;10.44;100110.31;5046534;28;20040;-65
2022/05/01 08:16:35;;;;;;;4.90;3.80;;;;;;;31.52;9.92;100106.13;5026808;28;20410;-65
2022/05/01 08:21:43;;;;;;;6.83;4.20;;;;;;;32.96;8.97;100100.00;5022916;28;20036;-66
2022/05/01 08:24:08;;;;;;;5.35;4.07;;;;;;;31.42;9.53;100105.84;5037360;28;20093;-66
2022/05/01 08:26:34;;;;;;;6.90;4.53;;;;;;;28.82;10.38;100096.47;5019738;28;20041;-67
2022/05/01 08:28:59;;;;;;;7.90;4.00;;;;;;;27.22;11.46;100087.59;5019952;28;20118;-66
2022/05/01 08:31:24;;;;;;;5.43;4.10;;;;;;;25.63;12.50;100093.94;5036860;28;20036;-67
2022/05/01 08:33:49;;;;;;;5.50;3.78;;;;;;;24.33;13.61;100085.81;5037337;28;20115;-67
2022/05/01 08:36:13;;;;;;;5.38;3.90;;;;;;;25.42;13.50;100090.34;5037211;28;20531;-66
2022/05/01 08:38:39;;;;;;;5.07;3.78;;;;;;;28.17;12.06;100078.22;5019318;28;20507;-66
2022/05/01 08:41:06;;;;;;;5.82;4.60;;;;;;;30.86;10.06;100073.94;5036817;28;20419;-66
2022/05/01 08:43:31;;;;;;;6.00;4.30;;;;;;;32.81;8.83;100070.16;5002268;28;20054;-65
2022/05/01 08:46:34;;;;;;;5.88;4.45;;;;;;;34.73;8.83;100080.16;5018813;28;20398;-67
2022/05/01 08:49:06;;;;;;;4.57;4.18;;;;;;;35.37;7.67;100063.75;5018947;28;20048;-65
2022/05/01 08:51:39;;;;;;;6.22;4.32;;;;;;;34.37;8.30;100067.72;5018896;28;20406;-65
2022/05/01 08:54:06;;;;;;;6.45;4.40;;;;;;;31.00;9.41;100068.06;5018749;28;20044;-66
2022/05/01 08:56:35;;;;;;;4.53;4.00;;;;;;;29.66;10.54;100067.09;5018850;28;20048;-65
2022/05/01 08:59:11;;;;;;;7.18;5.22;;;;;;;28.76;10.95;100063.56;5018824;28;20044;-67
2022/05/01 09:01:38;;;;;;;6.68;4.50;;;;;;;27.36;11.49;100061.09;5038402;28;20066;-67
2022/05/01 09:04:08;;;;;;;3.92;3.50;;;;;;;26.11;12.14;100044.97;5040645;28;20495;-67
2022/05/01 09:06:35;;;;;;;6.75;4.18;;;;;;;24.87;12.80;100048.16;5023639;28;20032;-69
2022/05/01 09:08:59;;;;;;;6.55;4.20;;;;;;;25.35;12.70;100046.63;5042066;28;20411;-67
2022/05/01 09:14:07;;;;;;;5.75;4.10;;;;;;;25.98;12.04;100039.41;5038686;28;20048;-66
2022/05/01 09:16:36;;;;;;;5.03;3.72;;;;;;;25.76;12.20;100035.88;5039867;28;20175;-69
2022/05/01 09:19:01;;;;;;;7.43;4.03;;;;;;;25.06;12.78;100033.91;5019019;28;20040;-69
2022/05/01 09:21:25;;;;;;;6.95;4.93;;;;;;;23.65;13.56;100026.91;5037502;28;20043;-68
2022/05/01 09:23:50;;;;;;;6.05;3.67;;;;;;;22.66;14.23;100025.88;5035016;28;20060;-69
2022/05/01 09:26:17;;;;;;;5.20;4.05;;;;;;;23.31;14.47;100025.47;5036647;28;20078;-69
2022/05/01 09:28:50;;;;;;;7.03;4.03;;;;;;;26.20;13.04;100018.31;5036884;28;20125;-67
2022/05/01 09:31:16;;;;;;;7.45;4.80;;;;;;;29.08;11.24;100024.13;5036516;28;20514;-67
2022/05/01 09:33:41;;;;;;;6.15;4.25;;;;;;;31.93;10.22;100017.91;5036037;28;20072;-69
2022/05/01 09:36:08;;;;;;;8.15;4.70;;;;;;;34.25;8.85;100033.75;5000939;28;20067;-67
2022/05/01 09:38:33;;;;;;;6.95;5.15;;;;;;;34.99;7.74;100027.84;5037716;28;20048;-68
2022/05/01 09:41:01;;;;;;;7.78;5.22;;;;;;;34.73;7.77;100027.50;5022210;28;20075;-69
2022/05/01 09:43:47;;;;;;;6.05;5.55;;;;;;;34.16;7.69;100033.34;5001694;28;20121;-68
2022/05/01 09:46:22;;;;;;;7.97;4.90;;;;;;;30.94;8.95;100015.81;5034498;28;20522;-68
2022/05/01 09:48:59;;;;;;;6.57;5.07;;;;;;;28.38;11.02;100012.19;5035934;28;20053;-67
2022/05/01 09:51:24;;;;;;;8.13;4.85;;;;;;;29.53;10.71;100002.09;5018013;28;20097;-67
2022/05/01 09:53:49;;;;;;;9.18;5.00;;;;;;;31.92;9.49;100005.19;5036403;28;20482;-67
2022/05/01 09:56:13;;;;;;;7.40;4.50;;;;;;;33.13;8.37;100006.13;5018192;28;20560;-67
2022/05/01 09:58:40;;;;;;;5.25;4.72;;;;;;;34.06;8.23;99994.47;5037421;28;20506;-68
2022/05/01 10:01:13;;;;;;;5.57;5.07;;;;;;;33.19;8.36;100005.13;5020141;28;20037;-67
2022/05/01 10:03:42;;;;;;;8.27;5.40;;;;;;;33.27;8.36;100010.31;5035694;28;20048;-67
2022/05/01 10:06:10;;;;;;;5.50;4.90;;;;;;;33.35;8.60;100003.50;5017740;28;20040;-69
2022/05/01 10:08:37;;;;;;;6.45;5.30;;;;;;;34.54;7.91;99999.28;5001085;28;20078;-68
2022/05/01 10:11:02;;;;;;;5.90;5.30;;;;;;;33.85;7.91;99986.97;5017574;28;20032;-68
2022/05/01 10:13:28;;;;;;;8.95;5.63;;;;;;;31.74;9.00;99991.50;5017470;28;20048;-67
2022/05/01 10:15:54;;;;;;;9.15;7.18;;;;;;;31.28;9.08;99990.31;5035421;28;20033;-68
2022/05/01 10:18:20;;;;;;;6.53;5.53;;;;;;;32.56;9.21;99994.19;5035286;28;20044;-68
2022/05/01 10:20:45;;;;;;;7.40;5.47;;;;;;;31.66;8.99;99973.41;5036414;28;20044;-65
2022/05/01 10:23:11;;;;;;;6.50;4.78;;;;;;;29.22;10.03;99981.81;5034389;28;20064;-66
2022/05/01 10:25:40;;;;;;;9.30;5.30;;;;;;;26.57;11.42;99974.16;5033827;28;20051;-67
2022/05/01 10:28:30;;;;;;;7.60;4.35;;;;;;;25.76;12.21;99967.59;5017158;28;20066;-69
2022/05/01 10:34:04;;;;;;;6.35;4.38;;;;;;;22.35;14.34;99959.78;5017807;28;20052;-67
2022/05/01 10:36:51;;;;;;;7.10;4.07;;;;;;;21.47;14.55;99956.31;5035165;28;20787;-66
2022/05/01 10:39:18;;;;;;;8.23;4.10;;;;;;;19.92;16.30;99952.44;5017130;28;20074;-66
2022/05/01 10:41:44;;;;;;;7.07;4.65;;;;;;;19.64;16.88;99940.13;5017574;28;20036;-66
2022/05/01 10:44:26;;;;;;;7.18;5.18;;;;;;;19.81;16.95;99955.44;5001006;28;20048;-68
2022/05/01 10:46:54;;;;;;;5.63;4.05;;;;;;;19.58;16.82;99938.91;5017389;28;20144;-67
2022/05/01 10:49:37;;;;;;;5.55;4.20;;;;;;;19.27;16.48;99940.34;5017490;28;20414;-68
2022/05/01 10:52:31;;;;;;;8.65;4.93;;;;;;;18.93;16.87;99935.69;5035172;28;20091;-68
2022/05/01 10:55:04;;;;;;;8.45;5.03;;;;;;;18.43;17.13;99935.34;4993637;28;20057;-67
2022/05/01 10:57:29;;;;;;;7.18;4.35;;;;;;;18.07;17.76;99920.94;4977022;28;20503;-66
2022/05/01 11:00:15;;;;;;;8.00;4.03;;;;;;;18.02;17.71;99921.41;4993170;28;20484;-64
2022/05/01 11:02:40;;;;;;;5.32;3.97;;;;;;;17.85;17.50;99922.19;4992382;28;20103;-69
2022/05/01 11:05:08;;;;;;;5.90;4.03;;;;;;;17.57;17.80;99921.28;4992910;28;20104;-68
2022/05/01 11:07:35;;;;;;;7.75;4.25;;;;;;;17.61;17.81;99906.50;4993858;28;20195;-72
2022/05/01 11:10:00;;;;;;;5.75;3.83;;;;;;;17.44;18.04;99901.88;4976977;28;20947;-67
2022/05/01 11:12:26;;;;;;;5.30;3.75;;;;;;;17.13;17.50;99908.50;4960291;28;20574;-70
2022/05/01 11:14:55;;;;;;;5.60;3.50;;;;;;;16.98;17.54;99897.31;4992776;28;20068;-70
2022/05/01 11:17:42;;;;;;;5.10;3.38;;;;;;;17.08;18.01;99905.38;4993592;28;20132;-70
2022/05/01 11:20:13;;;;;;;7.70;4.03;;;;;;;17.08;18.10;99905.38;4961824;28;20050;-70
2022/05/01 11:22:38;;;;;;;5.82;3.83;;;;;;;16.78;18.90;99904.56;4978715;28;20120;-71
2022/05/01 11:25:03;;;;;;;7.05;3.50;;;;;;;16.81;18.39;99900.75;4978117;28;20196;-71
2022/05/01 11:27:49;;;;;;;5.53;3.92;;;;;;;16.74;18.97;99903.16;4996202;28;20051;-72
2022/05/01 11:30:21;;;;;;;5.78;4.18;;;;;;;16.87;18.84;99906.41;4995477;28;20068;-72
2022/05/01 11:32:51;;;;;;;7.07;3.47;;;;;;;17.05;19.17;99891.19;5048410;28;20118;-73
2022/05/01 11:35:17;;;;;;;6.03;3.75;;;;;;;17.13;18.85;99885.09;5000357;28;20040;-76
2022/05/01 11:37:57;;;;;;;7.20;3.40;;;;;;;17.06;19.27;99884.81;5017042;28;20048;-74
2022/05/01 11:40:26;;;;;;;6.20;3.55;;;;;;;16.87;19.39;99884.88;5051399;28;20027;-75
2022/05/01 11:42:51;;;;;;;10.45;4.50;;;;;;;16.94;18.65;99874.34;5048124;28;20075;-72
2022/05/01 11:45:18;;;;;;;4.75;3.58;;;;;;;16.65;18.29;99880.63;5018528;28;20048;-72
2022/05/01 11:47:48;;;;;;;5.93;3.60;;;;;;;16.52;18.45;99879.19;5028275;28;20037;-75
2022/05/01 11:50:18;;;;;;;6.85;3.63;;;;;;;16.30;18.58;99877.63;5028256;28;20445;-74
2022/05/01 11:52:47;;;;;;;6.50;3.75;;;;;;;16.25;18.46;99869.13;5036317;28;20056;-73